Terminal Aerodrome Forecast
Issued by NWS Jackson, KY

Home | Current Version | Previous Version | Text Only | Print | Product List | Glossary On
Versions: 1 2 3 4 5 6 7 8 9 10 11 12 13 14 15 16 17 18
000
FTUS43 KJKL 210243 AAA
TAFLOZ
TAF AMD
KLOZ 210243Z 2103/2124 18008KT P6SM FEW070 SCT200 WS020/19040KT
     FM211400 21011G20KT P6SM VCSH BKN040
     FM211700 23010G20KT P6SM -SHRA OVC020
     FM212200 31006KT P6SM -SHRA OVC015=

USA.gov is the U.S. government's official web portal to all federal, state and local government web resources and services.